Time;durP1;ratioP1;P1;durP2;ratioP2;P2;SDS_P1;SDS_P2;PMS_P1;PMS_P2;Temp;Humidity;BMP_temperature;BMP_pressure;BME280_temperature;BME280_humidity;BME280_pressure;Samples;Min_cycle;Max_cycle;Signal;HPM_P1;HPM_P2
2021/02/20 00:01:48;;;;;;;8;3.2;;;;;;;2.73;81.43164;940.8652;;;;
2021/02/20 00:04:13;;;;;;;3.7;2.2;;;;;;;3.03;80.11816;940.9017;;;;
2021/02/20 00:06:43;;;;;;;7.3;3.3;;;;;;;3.11;79.62793;940.887;;;;
2021/02/20 00:09:08;;;;;;;6.9;2.8;;;;;;;3.01;79.69922;940.8961;;;;
2021/02/20 00:11:35;;;;;;;4.7;2.9;;;;;;;3;79.58398;940.8521;;;;
2021/02/20 00:14:07;;;;;;;10.3;3.2;;;;;;;2.92;80.05078;940.803;;;;
2021/02/20 00:16:55;;;;;;;3.8;2.1;;;;;;;3.05;79.42578;940.8547;;;;
2021/02/20 00:19:30;;;;;;;3.1;2.1;;;;;;;2.86;79.54688;940.8517;;;;
2021/02/20 00:22:10;;;;;;;4.3;2.1;;;;;;;2.9;79.6123;940.897;;;;
2021/02/20 00:24:37;;;;;;;3.4;2.1;;;;;;;2.48;81.31543;940.7919;;;;
2021/02/20 00:27:03;;;;;;;3.9;2.3;;;;;;;2.36;82.27734;940.8491;;;;
2021/02/20 00:29:41;;;;;;;3.4;1.8;;;;;;;2.64;81.30957;940.8406;;;;
2021/02/20 00:32:12;;;;;;;5.9;2.1;;;;;;;2.84;79.86914;940.8455;;;;
2021/02/20 00:34:43;;;;;;;2.7;1.3;;;;;;;2.92;79.24316;940.8533;;;;
2021/02/20 00:37:11;;;;;;;3.1;1.9;;;;;;;2.87;79.65039;940.7974;;;;
2021/02/20 00:39:42;;;;;;;2.6;1.6;;;;;;;2.42;81.37988;940.7686;;;;
2021/02/20 00:42:09;;;;;;;2;1.6;;;;;;;2.31;82.5918;940.777;;;;
2021/02/20 00:44:36;;;;;;;5.8;2.2;;;;;;;2.36;82.14258;940.8501;;;;
2021/02/20 00:47:09;;;;;;;4;2;;;;;;;2.58;81.38867;940.8267;;;;
2021/02/20 00:49:42;;;;;;;3.4;1.8;;;;;;;2.66;80.90039;940.8681;;;;
2021/02/20 00:52:12;;;;;;;2;1.6;;;;;;;2.93;79.38184;941.0286;;;;
2021/02/20 00:54:38;;;;;;;3.5;1.8;;;;;;;2.68;80.51074;940.9451;;;;
2021/02/20 00:57:03;;;;;;;5.5;2.2;;;;;;;2.48;81.20215;940.9291;;;;
2021/02/20 00:59:32;;;;;;;3.3;2;;;;;;;2.23;82.20801;940.9347;;;;
2021/02/20 01:01:57;;;;;;;7.3;2;;;;;;;2.26;82.3125;940.9711;;;;
2021/02/20 01:04:24;;;;;;;3.3;2;;;;;;;2.62;80.81445;940.96;;;;
2021/02/20 01:06:49;;;;;;;2.7;1.3;;;;;;;2.48;81.00195;940.9758;;;;
2021/02/20 01:09:16;;;;;;;3.4;1.6;;;;;;;2.49;81.13672;940.9849;;;;
2021/02/20 01:11:44;;;;;;;8;1.7;;;;;;;2.4;81.32031;940.9522;;;;
2021/02/20 01:14:14;;;;;;;2.7;1.8;;;;;;;2.37;81.69629;940.954;;;;
2021/02/20 01:16:40;;;;;;;3.8;1.6;;;;;;;2.5;81.17383;940.9846;;;;
2021/02/20 01:19:10;;;;;;;5.4;1.5;;;;;;;2.41;81.61328;940.9239;;;;
2021/02/20 01:21:45;;;;;;;1.5;1.1;;;;;;;2.21;82.32617;940.9878;;;;
2021/02/20 01:24:15;;;;;;;2.3;1.4;;;;;;;2.34;81.98242;940.9866;;;;
2021/02/20 01:26:41;;;;;;;3.4;2.2;;;;;;;2.19;82.56641;941.01;;;;
2021/02/20 01:29:13;;;;;;;7.4;2.1;;;;;;;2.54;81.04395;941.0505;;;;
2021/02/20 01:31:38;;;;;;;8.6;2.2;;;;;;;2.28;81.71289;941.0549;;;;
2021/02/20 01:34:07;;;;;;;3.7;2.1;;;;;;;2.24;82.00781;941.0325;;;;
2021/02/20 01:36:33;;;;;;;5.5;1.7;;;;;;;2.11;82.40723;941.0725;;;;
2021/02/20 01:39:02;;;;;;;5.3;1.9;;;;;;;2.25;81.71875;941.0525;;;;
2021/02/20 01:41:31;;;;;;;6;1.8;;;;;;;2.12;82.03027;941.0229;;;;
2021/02/20 01:44:02;;;;;;;3.2;2;;;;;;;2.14;82.04297;941.0179;;;;
2021/02/20 01:46:28;;;;;;;2.2;1.7;;;;;;;1.88;83.06641;941.1166;;;;
2021/02/20 01:48:53;;;;;;;6;1.5;;;;;;;2.01;82.95898;941.093;;;;
2021/02/20 01:51:19;;;;;;;1.8;1.4;;;;;;;1.97;82.92969;941.0164;;;;
2021/02/20 01:53:51;;;;;;;2.4;1.1;;;;;;;2.08;82.48047;940.9959;;;;
2021/02/20 01:56:16;;;;;;;3;1.5;;;;;;;2.1;82.42773;941.0617;;;;
2021/02/20 01:58:47;;;;;;;5.3;1.4;;;;;;;2.16;82.02441;941.0165;;;;
2021/02/20 02:01:18;;;;;;;2.1;1.1;;;;;;;1.93;82.9541;941.0531;;;;
2021/02/20 02:03:50;;;;;;;2;1.4;;;;;;;1.76;83.94043;940.9682;;;;
2021/02/20 02:06:22;;;;;;;2.2;1.7;;;;;;;1.79;83.97949;940.9269;;;;
2021/02/20 02:08:48;;;;;;;1.5;1.2;;;;;;;;;;;;;
2021/02/20 02:11:14;;;;;;;2.4;1.6;;;;;;;;;;;;;
2021/02/20 02:13:41;;;;;;;0.9;0.9;;;;;;;;;;;;;
2021/02/20 02:16:10;;;;;;;1;0.9;;;;;;;;;;;;;
2021/02/20 02:18:36;;;;;;;1.3;1.1;;;;;;;;;;;;;
2021/02/20 02:21:02;;;;;;;2.6;1.1;;;;;;;;;;;;;
2021/02/20 02:23:29;;;;;;;1.1;1;;;;;;;;;;;;;
2021/02/20 02:25:56;;;;;;;1;0.9;;;;;;;;;;;;;
2021/02/20 02:28:21;;;;;;;1.5;1;;;;;;;;;;;;;
2021/02/20 02:30:46;;;;;;;2.6;1.4;;;;;;;;;;;;;
2021/02/20 02:33:11;;;;;;;2.4;1.3;;;;;;;;;;;;;
2021/02/20 02:35:39;;;;;;;1.5;1;;;;;;;;;;;;;
2021/02/20 02:38:05;;;;;;;1.7;1.1;;;;;;;;;;;;;
2021/02/20 02:40:34;;;;;;;1.3;0.9;;;;;;;;;;;;;
2021/02/20 02:43:02;;;;;;;2.5;1.2;;;;;;;;;;;;;
2021/02/20 02:45:27;;;;;;;3;1.1;;;;;;;;;;;;;
2021/02/20 02:47:53;;;;;;;1.3;1.1;;;;;;;;;;;;;
2021/02/20 02:50:18;;;;;;;2.1;1.2;;;;;;;;;;;;;
2021/02/20 02:52:43;;;;;;;1.7;1.5;;;;;;;;;;;;;
2021/02/20 02:55:08;;;;;;;1.5;1.1;;;;;;;;;;;;;
2021/02/20 02:57:35;;;;;;;2.4;1.2;;;;;;;;;;;;;
2021/02/20 03:00:00;;;;;;;1.5;1.1;;;;;;;;;;;;;
2021/02/20 03:02:26;;;;;;;2.2;1;;;;;;;;;;;;;
2021/02/20 03:04:51;;;;;;;1.4;0.9;;;;;;;;;;;;;
2021/02/20 03:07:17;;;;;;;1;0.9;;;;;;;;;;;;;
2021/02/20 03:09:43;;;;;;;1.5;1;;;;;;;;;;;;;
2021/02/20 03:12:11;;;;;;;1;0.9;;;;;;;;;;;;;
2021/02/20 03:14:36;;;;;;;0.9;0.7;;;;;;;;;;;;;
2021/02/20 03:17:07;;;;;;;1.3;1;;;;;;;;;;;;;
2021/02/20 03:19:35;;;;;;;2;1.2;;;;;;;;;;;;;
2021/02/20 03:22:01;;;;;;;1.2;1.1;;;;;;;;;;;;;
2021/02/20 03:24:26;;;;;;;1;0.9;;;;;;;;;;;;;
2021/02/20 03:26:52;;;;;;;1.3;1.2;;;;;;;;;;;;;
2021/02/20 03:29:19;;;;;;;2;1.4;;;;;;;;;;;;;
2021/02/20 03:31:44;;;;;;;3.1;1.2;;;;;;;;;;;;;
2021/02/20 03:34:09;;;;;;;2.9;0.9;;;;;;;;;;;;;
2021/02/20 03:36:34;;;;;;;1;0.9;;;;;;;;;;;;;
2021/02/20 03:39:01;;;;;;;1.9;0.7;;;;;;;;;;;;;
2021/02/20 03:41:26;;;;;;;2.5;1.1;;;;;;;;;;;;;
2021/02/20 03:43:52;;;;;;;0.6;0.6;;;;;;;;;;;;;
2021/02/20 03:46:17;;;;;;;11.7;1.2;;;;;;;;;;;;;
2021/02/20 03:48:44;;;;;;;2.6;1.4;;;;;;;;;;;;;
2021/02/20 03:51:09;;;;;;;1.4;1.1;;;;;;;;;;;;;
2021/02/20 03:53:35;;;;;;;3.3;1.5;;;;;;;;;;;;;
2021/02/20 03:56:00;;;;;;;1.2;1.1;;;;;;;;;;;;;
2021/02/20 03:58:28;;;;;;;3.5;1.5;;;;;;;;;;;;;
2021/02/20 04:02:42;;;;;;;1.5;1.4;;;;;;;1.26;85.24805;940.9792;;;;
2021/02/20 04:05:18;;;;;;;2;1.7;;;;;;;1.28;85.09473;940.976;;;;
2021/02/20 04:07:47;;;;;;;4.4;2.1;;;;;;;1.28;84.89355;941.0027;;;;
2021/02/20 04:10:17;;;;;;;1.4;0.8;;;;;;;1.31;84.4541;940.9635;;;;
2021/02/20 04:12:43;;;;;;;1.9;1.2;;;;;;;1.25;84.84375;940.9659;;;;
2021/02/20 04:15:13;;;;;;;3.5;1.7;;;;;;;1.26;84.64453;940.9871;;;;
2021/02/20 04:17:46;;;;;;;3.9;1.1;;;;;;;1.33;84.50195;940.9888;;;;
2021/02/20 04:20:12;;;;;;;4;1.4;;;;;;;1.51;83.58789;940.9991;;;;
2021/02/20 04:22:37;;;;;;;2.7;0.7;;;;;;;;;;;;;
2021/02/20 04:25:04;;;;;;;1.8;1.2;;;;;;;;;;;;;
2021/02/20 04:27:27;;;;;;;2.5;1;;;;;;;;;;;;;
2021/02/20 04:29:54;;;;;;;1.6;1.4;;;;;;;;;;;;;
2021/02/20 04:32:19;;;;;;;0.8;0.8;;;;;;;;;;;;;
2021/02/20 04:34:45;;;;;;;6.2;1.5;;;;;;;;;;;;;
2021/02/20 04:37:10;;;;;;;3.7;1;;;;;;;;;;;;;
2021/02/20 04:39:36;;;;;;;1.6;1.3;;;;;;;;;;;;;
2021/02/20 04:42:01;;;;;;;2.5;1.1;;;;;;;;;;;;;
2021/02/20 04:44:27;;;;;;;0.8;0.7;;;;;;;;;;;;;
2021/02/20 04:46:52;;;;;;;1.5;1;;;;;;;;;;;;;
2021/02/20 04:49:18;;;;;;;1.3;0.9;;;;;;;;;;;;;
2021/02/20 04:51:43;;;;;;;1;0.8;;;;;;;;;;;;;
2021/02/20 04:54:12;;;;;;;2.8;1;;;;;;;;;;;;;
2021/02/20 04:56:37;;;;;;;3;1.3;;;;;;;;;;;;;
2021/02/20 04:59:03;;;;;;;3.8;1.6;;;;;;;;;;;;;
2021/02/20 05:01:28;;;;;;;1;0.8;;;;;;;;;;;;;
2021/02/20 05:03:54;;;;;;;3.4;0.9;;;;;;;;;;;;;
2021/02/20 05:06:19;;;;;;;1.2;1.1;;;;;;;;;;;;;
2021/02/20 05:08:45;;;;;;;1.3;0.7;;;;;;;;;;;;;
2021/02/20 05:11:11;;;;;;;4.9;0.8;;;;;;;;;;;;;
2021/02/20 05:13:37;;;;;;;1.2;1.1;;;;;;;;;;;;;
2021/02/20 05:16:03;;;;;;;8.1;1.4;;;;;;;;;;;;;
2021/02/20 05:18:30;;;;;;;3.2;1.4;;;;;;;;;;;;;
2021/02/20 05:20:55;;;;;;;2.1;1;;;;;;;;;;;;;
2021/02/20 05:23:22;;;;;;;1.8;1.4;;;;;;;;;;;;;
2021/02/20 05:25:47;;;;;;;9;2.5;;;;;;;;;;;;;
2021/02/20 05:28:13;;;;;;;4.7;2.3;;;;;;;;;;;;;
2021/02/20 05:30:39;;;;;;;2.6;1.4;;;;;;;;;;;;;
2021/02/20 05:33:05;;;;;;;2.6;1.5;;;;;;;;;;;;;
2021/02/20 05:35:31;;;;;;;8;1.8;;;;;;;;;;;;;
2021/02/20 05:37:59;;;;;;;2.2;1.1;;;;;;;;;;;;;
2021/02/20 05:40:35;;;;;;;5.2;1.4;;;;;;;;;;;;;
2021/02/20 05:43:04;;;;;;;3.8;1.7;;;;;;;;;;;;;
2021/02/20 05:45:38;;;;;;;3.9;1.1;;;;;;;;;;;;;
2021/02/20 05:48:04;;;;;;;3.3;1.2;;;;;;;;;;;;;
2021/02/20 05:50:29;;;;;;;6.9;1.5;;;;;;;;;;;;;
2021/02/20 05:52:55;;;;;;;3.5;1.4;;;;;;;;;;;;;
2021/02/20 05:55:21;;;;;;;2.4;0.8;;;;;;;;;;;;;
2021/02/20 05:57:47;;;;;;;1.4;0.9;;;;;;;;;;;;;
2021/02/20 06:00:12;;;;;;;1.4;1.1;;;;;;;;;;;;;
2021/02/20 06:02:39;;;;;;;6.8;2.1;;;;;;;;;;;;;
2021/02/20 06:05:04;;;;;;;8.1;2.5;;;;;;;;;;;;;
2021/02/20 06:07:33;;;;;;;5.3;2.8;;;;;;;;;;;;;
2021/02/20 06:09:58;;;;;;;5.1;2.6;;;;;;;;;;;;;
2021/02/20 06:12:27;;;;;;;6.1;2.1;;;;;;;;;;;;;
2021/02/20 06:14:55;;;;;;;1.7;1.2;;;;;;;;;;;;;
2021/02/20 06:17:30;;;;;;;1.2;1.1;;;;;;;;;;;;;
2021/02/20 06:19:58;;;;;;;4.1;1.1;;;;;;;;;;;;;
2021/02/20 06:22:23;;;;;;;0.8;0.7;;;;;;;;;;;;;
2021/02/20 06:24:50;;;;;;;1.2;0.8;;;;;;;;;;;;;
2021/02/20 06:27:15;;;;;;;1.7;0.9;;;;;;;;;;;;;
2021/02/20 06:29:41;;;;;;;1.3;1;;;;;;;;;;;;;
2021/02/20 06:32:06;;;;;;;1.5;1.1;;;;;;;;;;;;;
2021/02/20 06:34:31;;;;;;;6.3;1.4;;;;;;;;;;;;;
2021/02/20 06:37:01;;;;;;;2.3;1.3;;;;;;;;;;;;;
2021/02/20 06:39:34;;;;;;;3.4;1.2;;;;;;;;;;;;;
2021/02/20 06:42:02;;;;;;;2.8;1.5;;;;;;;;;;;;;
2021/02/20 06:44:27;;;;;;;4.8;2.2;;;;;;;;;;;;;
2021/02/20 06:47:00;;;;;;;5.5;2.8;;;;;;;;;;;;;
2021/02/20 06:49:29;;;;;;;6.6;3;;;;;;;;;;;;;
2021/02/20 06:52:00;;;;;;;5.8;2.9;;;;;;;;;;;;;
2021/02/20 06:54:27;;;;;;;6.3;1.8;;;;;;;;;;;;;
2021/02/20 06:56:56;;;;;;;4.3;2;;;;;;;;;;;;;
2021/02/20 06:59:24;;;;;;;2.1;1.5;;;;;;;;;;;;;
2021/02/20 07:01:50;;;;;;;1.4;1;;;;;;;;;;;;;
2021/02/20 07:04:16;;;;;;;4.2;1.1;;;;;;;;;;;;;
2021/02/20 07:06:41;;;;;;;4.7;1.4;;;;;;;;;;;;;
2021/02/20 07:09:08;;;;;;;4.4;2.5;;;;;;;;;;;;;
2021/02/20 07:11:33;;;;;;;2.8;1.9;;;;;;;;;;;;;
2021/02/20 07:13:59;;;;;;;5.3;1.7;;;;;;;;;;;;;
2021/02/20 07:16:27;;;;;;;5.5;3.1;;;;;;;;;;;;;
2021/02/20 07:18:57;;;;;;;4.2;2.4;;;;;;;;;;;;;
2021/02/20 07:21:24;;;;;;;4.4;2.3;;;;;;;;;;;;;
2021/02/20 07:23:47;;;;;;;3.8;2;;;;;;;;;;;;;
2021/02/20 07:26:12;;;;;;;1.6;1.5;;;;;;;;;;;;;
2021/02/20 07:28:38;;;;;;;4.9;2.3;;;;;;;;;;;;;
2021/02/20 07:31:04;;;;;;;5.7;2.5;;;;;;;;;;;;;
2021/02/20 07:33:34;;;;;;;5.5;2.6;;;;;;;;;;;;;
2021/02/20 07:35:59;;;;;;;8.2;2.9;;;;;;;;;;;;;
2021/02/20 07:38:26;;;;;;;3.3;2.1;;;;;;;;;;;;;
2021/02/20 07:40:51;;;;;;;1.4;1.3;;;;;;;;;;;;;
2021/02/20 07:43:22;;;;;;;3.7;1.9;;;;;;;;;;;;;
2021/02/20 07:45:47;;;;;;;2;1.1;;;;;;;;;;;;;
2021/02/20 07:48:15;;;;;;;4.2;1.6;;;;;;;;;;;;;
2021/02/20 07:50:40;;;;;;;1.2;1.1;;;;;;;;;;;;;
2021/02/20 07:53:06;;;;;;;1.5;1.1;;;;;;;;;;;;;
2021/02/20 07:55:32;;;;;;;5.3;1.4;;;;;;;;;;;;;
2021/02/20 07:57:58;;;;;;;2.1;1.2;;;;;;;;;;;;;
2021/02/20 08:00:32;;;;;;;3.3;1.9;;;;;;;;;;;;;
2021/02/20 08:03:13;;;;;;;3.1;1.5;;;;;;;;;;;;;
2021/02/20 08:05:14;;;;;;;0.9;0.6;;;;;;;;;;;;;
2021/02/20 08:07:38;;;;;;;2.5;1;;;;;;;;;;;;;
2021/02/20 08:10:03;;;;;;;3.5;1.7;;;;;;;;;;;;;
2021/02/20 08:12:28;;;;;;;2.5;1.1;;;;;;;;;;;;;
2021/02/20 08:14:53;;;;;;;2.7;1;;;;;;;;;;;;;
2021/02/20 08:17:26;;;;;;;1.9;0.9;;;;;;;;;;;;;
2021/02/20 08:19:56;;;;;;;1.9;0.7;;;;;;;;;;;;;
2021/02/20 08:22:22;;;;;;;2.6;0.8;;;;;;;;;;;;;
2021/02/20 08:24:47;;;;;;;0.8;0.6;;;;;;;;;;;;;
2021/02/20 08:27:12;;;;;;;2.6;0.8;;;;;;;;;;;;;
2021/02/20 08:29:39;;;;;;;1.7;1.1;;;;;;;;;;;;;
2021/02/20 08:32:02;;;;;;;12.3;2.2;;;;;;;;;;;;;
2021/02/20 08:34:28;;;;;;;16.9;1.5;;;;;;;;;;;;;
2021/02/20 08:36:53;;;;;;;7.2;1.8;;;;;;;;;;;;;
2021/02/20 08:39:19;;;;;;;1.8;0.6;;;;;;;;;;;;;
2021/02/20 08:41:44;;;;;;;1.7;0.9;;;;;;;;;;;;;
2021/02/20 08:44:10;;;;;;;2.5;1.3;;;;;;;;;;;;;
2021/02/20 08:46:36;;;;;;;7.6;1.9;;;;;;;;;;;;;
2021/02/20 08:49:03;;;;;;;2.3;0.8;;;;;;;;;;;;;
2021/02/20 08:51:29;;;;;;;0.2;0.2;;;;;;;;;;;;;
2021/02/20 08:53:56;;;;;;;1.7;0.9;;;;;;;;;;;;;
2021/02/20 08:56:20;;;;;;;12;0.9;;;;;;;;;;;;;
2021/02/20 08:58:47;;;;;;;1.2;0.7;;;;;;;;;;;;;
2021/02/20 09:01:13;;;;;;;1.1;0.6;;;;;;;;;;;;;
2021/02/20 09:03:38;;;;;;;1.1;0.6;;;;;;;;;;;;;
2021/02/20 09:06:05;;;;;;;1.7;1;;;;;;;;;;;;;
2021/02/20 09:08:30;;;;;;;3.2;0.8;;;;;;;;;;;;;
2021/02/20 09:10:56;;;;;;;7.9;1.3;;;;;;;;;;;;;
2021/02/20 09:13:21;;;;;;;1.8;0.8;;;;;;;;;;;;;
2021/02/20 09:15:56;;;;;;;8.6;1.3;;;;;;;;;;;;;
2021/02/20 09:18:23;;;;;;;6.6;1.4;;;;;;;;;;;;;
2021/02/20 09:20:53;;;;;;;3.5;0.7;;;;;;;;;;;;;
2021/02/20 09:23:18;;;;;;;2.3;0.9;;;;;;;;;;;;;
2021/02/20 09:25:44;;;;;;;2.2;0.3;;;;;;;;;;;;;
2021/02/20 09:28:09;;;;;;;1.2;0.8;;;;;;;;;;;;;
2021/02/20 09:30:34;;;;;;;0.7;0.4;;;;;;;;;;;;;
2021/02/20 09:33:00;;;;;;;1.8;0.4;;;;;;;;;;;;;
2021/02/20 09:35:25;;;;;;;1.6;0.4;;;;;;;;;;;;;
2021/02/20 09:37:51;;;;;;;0.8;0.3;;;;;;;;;;;;;
2021/02/20 09:40:15;;;;;;;0.2;0.2;;;;;;;;;;;;;
2021/02/20 09:42:42;;;;;;;0.3;0.3;;;;;;;;;;;;;
2021/02/20 09:45:07;;;;;;;1.8;0.7;;;;;;;;;;;;;
2021/02/20 09:47:34;;;;;;;4.7;0.7;;;;;;;;;;;;;
2021/02/20 09:49:59;;;;;;;14.8;0.9;;;;;;;;;;;;;
2021/02/20 09:52:25;;;;;;;0.7;0.4;;;;;;;;;;;;;
2021/02/20 09:54:50;;;;;;;2.9;0.9;;;;;;;;;;;;;
2021/02/20 09:57:17;;;;;;;8.6;0.8;;;;;;;;;;;;;
2021/02/20 09:59:42;;;;;;;8;1.5;;;;;;;;;;;;;
2021/02/20 10:02:11;;;;;;;1.3;0.8;;;;;;;;;;;;;
2021/02/20 10:04:36;;;;;;;3.1;0.8;;;;;;;;;;;;;
2021/02/20 10:07:01;;;;;;;2.2;0.7;;;;;;;;;;;;;
2021/02/20 10:09:26;;;;;;;3.2;0.9;;;;;;;;;;;;;
2021/02/20 10:11:52;;;;;;;0.9;0.7;;;;;;;;;;;;;
2021/02/20 10:14:18;;;;;;;9.3;1.2;;;;;;;;;;;;;
2021/02/20 10:16:43;;;;;;;0.7;0.5;;;;;;;;;;;;;
2021/02/20 10:19:12;;;;;;;0.3;0.3;;;;;;;;;;;;;
2021/02/20 10:21:40;;;;;;;1.2;0.4;;;;;;;;;;;;;
2021/02/20 10:24:10;;;;;;;3.6;1.2;;;;;;;;;;;;;
2021/02/20 10:26:35;;;;;;;0.9;0.6;;;;;;;;;;;;;
2021/02/20 10:29:04;;;;;;;6.9;1.6;;;;;;;;;;;;;
2021/02/20 10:31:34;;;;;;;3.3;1;;;;;;;;;;;;;
2021/02/20 10:34:05;;;;;;;1.5;0.6;;;;;;;;;;;;;
2021/02/20 10:36:35;;;;;;;0.7;0.4;;;;;;;;;;;;;
2021/02/20 10:39:03;;;;;;;0.7;0.4;;;;;;;;;;;;;
2021/02/20 10:41:29;;;;;;;1.4;0.7;;;;;;;;;;;;;
2021/02/20 10:43:56;;;;;;;1.5;0.5;;;;;;;;;;;;;
2021/02/20 10:46:21;;;;;;;2.4;0.7;;;;;;;;;;;;;
2021/02/20 10:48:47;;;;;;;0.6;0.3;;;;;;;;;;;;;
2021/02/20 10:51:12;;;;;;;1.1;0.5;;;;;;;;;;;;;
2021/02/20 10:53:38;;;;;;;0.3;0.2;;;;;;;;;;;;;
2021/02/20 10:56:03;;;;;;;2.5;0.9;;;;;;;;;;;;;
2021/02/20 10:58:28;;;;;;;0.4;0.3;;;;;;;;;;;;;
2021/02/20 11:00:53;;;;;;;1.7;0.5;;;;;;;;;;;;;
2021/02/20 11:03:19;;;;;;;0.9;0.4;;;;;;;;;;;;;
2021/02/20 11:05:44;;;;;;;0.9;0.5;;;;;;;;;;;;;
2021/02/20 11:08:10;;;;;;;0.3;0.2;;;;;;;;;;;;;
2021/02/20 11:10:35;;;;;;;0.5;0.4;;;;;;;;;;;;;
2021/02/20 11:13:03;;;;;;;0.6;0.2;;;;;;;;;;;;;
2021/02/20 11:15:26;;;;;;;0.8;0.5;;;;;;;;;;;;;
2021/02/20 11:17:53;;;;;;;3.7;0.6;;;;;;;;;;;;;
2021/02/20 11:20:18;;;;;;;0.3;0.3;;;;;;;;;;;;;
2021/02/20 11:22:44;;;;;;;4.5;1;;;;;;;;;;;;;
2021/02/20 11:25:09;;;;;;;0.7;0.4;;;;;;;;;;;;;
2021/02/20 11:27:41;;;;;;;1.6;0.5;;;;;;;;;;;;;
2021/02/20 11:30:01;;;;;;;1;0.6;;;;;;;;;;;;;
2021/02/20 11:32:27;;;;;;;5.4;1.4;;;;;;;;;;;;;
2021/02/20 11:34:52;;;;;;;0.4;0.3;;;;;;;;;;;;;
2021/02/20 11:37:18;;;;;;;0.2;0.1;;;;;;;;;;;;;
2021/02/20 11:39:43;;;;;;;0.3;0.2;;;;;;;;;;;;;
2021/02/20 11:42:09;;;;;;;0.1;0.1;;;;;;;;;;;;;
2021/02/20 11:44:34;;;;;;;1.8;0.6;;;;;;;;;;;;;
2021/02/20 11:47:01;;;;;;;1.2;0.6;;;;;;;;;;;;;
2021/02/20 11:49:26;;;;;;;0.5;0.3;;;;;;;;;;;;;
2021/02/20 11:51:52;;;;;;;0.6;0.4;;;;;;;;;;;;;
2021/02/20 11:54:19;;;;;;;0.4;0.3;;;;;;;;;;;;;
2021/02/20 11:56:43;;;;;;;1.1;0.5;;;;;;;;;;;;;
2021/02/20 11:59:08;;;;;;;0.8;0.4;;;;;;;;;;;;;
2021/02/20 12:01:38;;;;;;;0.7;0.4;;;;;;;;;;;;;
2021/02/20 12:04:05;;;;;;;0.8;0.3;;;;;;;;;;;;;
2021/02/20 12:06:30;;;;;;;1.5;0.4;;;;;;;;;;;;;
2021/02/20 12:08:55;;;;;;;0.3;0.2;;;;;;;;;;;;;
2021/02/20 12:11:21;;;;;;;0.4;0.2;;;;;;;;;;;;;
2021/02/20 12:13:46;;;;;;;3.2;0.5;;;;;;;;;;;;;
2021/02/20 12:16:13;;;;;;;1.9;1;;;;;;;;;;;;;
2021/02/20 12:18:38;;;;;;;1.1;0.8;;;;;;;;;;;;;
2021/02/20 12:21:04;;;;;;;0.9;0.3;;;;;;;;;;;;;
2021/02/20 12:23:29;;;;;;;2.7;0.4;;;;;;;;;;;;;
2021/02/20 12:25:54;;;;;;;0.8;0.7;;;;;;;;;;;;;
2021/02/20 12:28:19;;;;;;;0.8;0.4;;;;;;;;;;;;;
2021/02/20 12:30:46;;;;;;;0.3;0.2;;;;;;;;;;;;;
2021/02/20 12:33:11;;;;;;;0.4;0.3;;;;;;;;;;;;;
2021/02/20 12:35:37;;;;;;;0.7;0.3;;;;;;;;;;;;;
2021/02/20 12:38:02;;;;;;;1.2;0.4;;;;;;;;;;;;;
2021/02/20 12:40:28;;;;;;;1.6;0.7;;;;;;;;;;;;;
2021/02/20 12:42:53;;;;;;;0.5;0.3;;;;;;;;;;;;;
2021/02/20 12:45:19;;;;;;;2.2;0.4;;;;;;;;;;;;;
2021/02/20 12:47:44;;;;;;;1.5;0.4;;;;;;;;;;;;;
2021/02/20 12:50:12;;;;;;;0.4;0.3;;;;;;;;;;;;;
2021/02/20 12:52:37;;;;;;;1;0.5;;;;;;;;;;;;;
2021/02/20 12:55:02;;;;;;;1.3;0.7;;;;;;;;;;;;;
2021/02/20 12:57:27;;;;;;;1;0.2;;;;;;;;;;;;;
2021/02/20 12:59:53;;;;;;;0.8;0.4;;;;;;;;;;;;;
2021/02/20 13:02:18;;;;;;;0.3;0.2;;;;;;;;;;;;;
2021/02/20 13:04:48;;;;;;;0.6;0.4;;;;;;;;;;;;;
2021/02/20 13:07:09;;;;;;;8.2;0.4;;;;;;;;;;;;;
2021/02/20 13:09:35;;;;;;;0.4;0.2;;;;;;;;;;;;;
2021/02/20 13:12:00;;;;;;;1.1;0.3;;;;;;;;;;;;;
2021/02/20 13:14:27;;;;;;;0.8;0.4;;;;;;;;;;;;;
2021/02/20 13:16:53;;;;;;;3.2;0.4;;;;;;;;;;;;;
2021/02/20 13:19:20;;;;;;;2.8;0.5;;;;;;;;;;;;;
2021/02/20 13:21:45;;;;;;;1;0.3;;;;;;;;;;;;;
2021/02/20 13:24:10;;;;;;;1.3;0.5;;;;;;;;;;;;;
2021/02/20 13:26:35;;;;;;;0.6;0.2;;;;;;;;;;;;;
2021/02/20 13:29:01;;;;;;;2.3;0.2;;;;;;;;;;;;;
2021/02/20 13:31:26;;;;;;;1.7;0.5;;;;;;;;;;;;;
2021/02/20 13:33:52;;;;;;;0.5;0.3;;;;;;;;;;;;;
2021/02/20 13:36:17;;;;;;;1.6;0.4;;;;;;;;;;;;;
2021/02/20 13:38:43;;;;;;;1;0.6;;;;;;;;;;;;;
2021/02/20 13:41:08;;;;;;;1.2;0.5;;;;;;;;;;;;;
2021/02/20 13:43:34;;;;;;;0.5;0.2;;;;;;;;;;;;;
2021/02/20 13:46:00;;;;;;;0.6;0.2;;;;;;;;;;;;;
2021/02/20 13:48:26;;;;;;;0.5;0.3;;;;;;;;;;;;;
2021/02/20 13:50:51;;;;;;;0.5;0.4;;;;;;;;;;;;;
2021/02/20 13:53:17;;;;;;;0.7;0.4;;;;;;;;;;;;;
2021/02/20 13:55:42;;;;;;;0.5;0.4;;;;;;;;;;;;;
2021/02/20 13:58:09;;;;;;;0.6;0.3;;;;;;;;;;;;;
2021/02/20 14:00:34;;;;;;;0.2;0.2;;;;;;;;;;;;;
2021/02/20 14:03:00;;;;;;;0.5;0.3;;;;;;;;;;;;;
2021/02/20 14:05:25;;;;;;;4;0.6;;;;;;;;;;;;;
2021/02/20 14:07:51;;;;;;;0.4;0.3;;;;;;;;;;;;;
2021/02/20 14:10:16;;;;;;;0.4;0.1;;;;;;;;;;;;;
2021/02/20 14:12:42;;;;;;;0.4;0.2;;;;;;;;;;;;;
2021/02/20 14:15:07;;;;;;;0.4;0.1;;;;;;;;;;;;;
2021/02/20 14:17:34;;;;;;;0.8;0.5;;;;;;;;;;;;;
2021/02/20 14:19:59;;;;;;;0.8;0.3;;;;;;;;;;;;;
2021/02/20 14:22:25;;;;;;;3;0.4;;;;;;;;;;;;;
2021/02/20 14:24:50;;;;;;;0.4;0.3;;;;;;;;;;;;;
2021/02/20 14:27:16;;;;;;;0.2;0.1;;;;;;;;;;;;;
2021/02/20 14:29:43;;;;;;;0.9;0.3;;;;;;;;;;;;;
2021/02/20 14:32:06;;;;;;;2.1;0.2;;;;;;;;;;;;;
2021/02/20 14:34:31;;;;;;;1.6;0.8;;;;;;;;;;;;;
2021/02/20 14:36:57;;;;;;;0.4;0.3;;;;;;;;;;;;;
2021/02/20 14:39:22;;;;;;;1.7;0.7;;;;;;;;;;;;;
2021/02/20 14:41:49;;;;;;;0.2;0.2;;;;;;;;;;;;;
2021/02/20 14:44:14;;;;;;;0.8;0.4;;;;;;;;;;;;;
2021/02/20 14:46:41;;;;;;;2;0.5;;;;;;;;;;;;;
2021/02/20 14:49:06;;;;;;;0.9;0.4;;;;;;;;;;;;;
2021/02/20 14:51:33;;;;;;;0.9;0.5;;;;;;;;;;;;;
2021/02/20 14:53:58;;;;;;;0.2;0.1;;;;;;;;;;;;;
2021/02/20 14:56:23;;;;;;;3.1;0.8;;;;;;;;;;;;;
2021/02/20 14:58:48;;;;;;;0.9;0.5;;;;;;;;;;;;;
2021/02/20 15:01:15;;;;;;;0.4;0.3;;;;;;;;;;;;;
2021/02/20 15:03:40;;;;;;;1;0.8;;;;;;;;;;;;;
2021/02/20 15:06:06;;;;;;;0.2;0.2;;;;;;;;;;;;;
2021/02/20 15:08:31;;;;;;;0.3;0.2;;;;;;;;;;;;;
2021/02/20 15:10:57;;;;;;;4;0.5;;;;;;;;;;;;;
2021/02/20 15:13:22;;;;;;;6.4;1;;;;;;;;;;;;;
2021/02/20 15:15:52;;;;;;;3;0.4;;;;;;;;;;;;;
2021/02/20 15:18:17;;;;;;;0.9;0.5;;;;;;;;;;;;;
2021/02/20 15:20:42;;;;;;;7.5;1.2;;;;;;;;;;;;;
2021/02/20 15:23:07;;;;;;;3.1;0.7;;;;;;;;;;;;;
2021/02/20 15:25:34;;;;;;;7;1.3;;;;;;;;;;;;;
2021/02/20 15:27:59;;;;;;;2.1;1.1;;;;;;;;;;;;;
2021/02/20 15:30:24;;;;;;;2.6;0.8;;;;;;;;;;;;;
2021/02/20 15:32:49;;;;;;;26.7;2.2;;;;;;;;;;;;;
2021/02/20 15:35:15;;;;;;;2.7;0.8;;;;;;;;;;;;;
2021/02/20 15:37:40;;;;;;;4.1;1.3;;;;;;;;;;;;;
2021/02/20 15:40:07;;;;;;;3.4;1.5;;;;;;;;;;;;;
2021/02/20 15:42:32;;;;;;;6.2;2.4;;;;;;;;;;;;;
2021/02/20 15:44:57;;;;;;;4.7;1.7;;;;;;;;;;;;;
2021/02/20 15:47:22;;;;;;;2;0.9;;;;;;;;;;;;;
2021/02/20 15:49:47;;;;;;;3.9;0.6;;;;;;;;;;;;;
2021/02/20 15:52:13;;;;;;;1.3;0.7;;;;;;;;;;;;;
2021/02/20 15:54:40;;;;;;;1.2;0.6;;;;;;;;;;;;;
2021/02/20 15:57:05;;;;;;;1.9;0.9;;;;;;;;;;;;;
2021/02/20 15:59:30;;;;;;;4.9;1.9;;;;;;;;;;;;;
2021/02/20 16:01:56;;;;;;;4.8;1.6;;;;;;;;;;;;;
2021/02/20 16:04:21;;;;;;;11.3;1.2;;;;;;;;;;;;;
2021/02/20 16:06:46;;;;;;;1.2;0.7;;;;;;;;;;;;;
2021/02/20 16:09:12;;;;;;;7;1.5;;;;;;;;;;;;;
2021/02/20 16:11:37;;;;;;;10;1.4;;;;;;;;;;;;;
2021/02/20 16:14:03;;;;;;;2.5;1;;;;;;;;;;;;;
2021/02/20 16:16:28;;;;;;;4.7;1.1;;;;;;;;;;;;;
2021/02/20 16:18:53;;;;;;;13;1;;;;;;;;;;;;;
2021/02/20 16:21:19;;;;;;;5.3;1.5;;;;;;;;;;;;;
2021/02/20 16:23:45;;;;;;;4.2;1.2;;;;;;;;;;;;;
2021/02/20 16:26:11;;;;;;;13.1;1.1;;;;;;;;;;;;;
2021/02/20 16:28:36;;;;;;;2.8;1.2;;;;;;;;;;;;;
2021/02/20 16:31:02;;;;;;;4.7;1.4;;;;;;;;;;;;;
2021/02/20 16:33:27;;;;;;;13.8;1.5;;;;;;;;;;;;;
2021/02/20 16:35:52;;;;;;;7.9;1.9;;;;;;;;;;;;;
2021/02/20 16:38:19;;;;;;;4.9;2;;;;;;;;;;;;;
2021/02/20 16:40:44;;;;;;;2.6;1.3;;;;;;;;;;;;;
2021/02/20 16:43:12;;;;;;;5.1;2.5;;;;;;;;;;;;;
2021/02/20 16:45:35;;;;;;;4.1;1.9;;;;;;;;;;;;;
2021/02/20 16:48:01;;;;;;;1.8;1.1;;;;;;;;;;;;;
2021/02/20 16:50:26;;;;;;;6.4;1.8;;;;;;;;;;;;;
2021/02/20 16:52:53;;;;;;;8.8;1;;;;;;;;;;;;;
2021/02/20 16:55:18;;;;;;;4.3;1.5;;;;;;;;;;;;;
2021/02/20 16:57:44;;;;;;;10.5;1.8;;;;;;;;;;;;;
2021/02/20 17:00:09;;;;;;;2.8;1.7;;;;;;;;;;;;;
2021/02/20 17:02:36;;;;;;;4.5;1.7;;;;;;;;;;;;;
2021/02/20 17:05:01;;;;;;;5.1;2;;;;;;;;;;;;;
2021/02/20 17:07:27;;;;;;;2.5;1.2;;;;;;;;;;;;;
2021/02/20 17:09:52;;;;;;;1.5;0.9;;;;;;;;;;;;;
2021/02/20 17:12:19;;;;;;;7.6;2.2;;;;;;;;;;;;;
2021/02/20 17:14:46;;;;;;;4.6;2.1;;;;;;;;;;;;;
2021/02/20 17:17:11;;;;;;;3.3;1.5;;;;;;;;;;;;;
2021/02/20 17:19:36;;;;;;;6.7;2;;;;;;;;;;;;;
2021/02/20 17:22:02;;;;;;;3.2;2;;;;;;;;;;;;;
2021/02/20 17:24:27;;;;;;;8.8;3.2;;;;;;;;;;;;;
2021/02/20 17:26:54;;;;;;;5;2.2;;;;;;;;;;;;;
2021/02/20 17:29:20;;;;;;;3;2;;;;;;;;;;;;;
2021/02/20 17:31:44;;;;;;;4;1.6;;;;;;;;;;;;;
2021/02/20 17:34:09;;;;;;;9.1;2.1;;;;;;;;;;;;;
2021/02/20 17:36:35;;;;;;;14.2;4;;;;;;;;;;;;;
2021/02/20 17:39:00;;;;;;;6.5;4.1;;;;;;;;;;;;;
2021/02/20 17:41:26;;;;;;;6.7;3;;;;;;;;;;;;;
2021/02/20 17:43:51;;;;;;;6.3;3.3;;;;;;;;;;;;;
2021/02/20 17:46:17;;;;;;;17.3;4.5;;;;;;;;;;;;;
2021/02/20 17:48:42;;;;;;;14.9;4.2;;;;;;;;;;;;;
2021/02/20 17:51:09;;;;;;;7.1;3.7;;;;;;;;;;;;;
2021/02/20 17:53:34;;;;;;;7.1;4.3;;;;;;;;;;;;;
2021/02/20 17:56:01;;;;;;;11.5;4.3;;;;;;;;;;;;;
2021/02/20 17:58:24;;;;;;;12.4;5.7;;;;;;;;;;;;;
2021/02/20 18:00:51;;;;;;;17.2;5.6;;;;;;;;;;;;;
2021/02/20 18:03:16;;;;;;;10.3;6.1;;;;;;;;;;;;;
2021/02/20 18:05:45;;;;;;;14.1;6.6;;;;;;;;;;;;;
2021/02/20 18:08:10;;;;;;;17;6.2;;;;;;;;;;;;;
2021/02/20 18:10:36;;;;;;;14.1;6;;;;;;;;;;;;;
2021/02/20 18:13:01;;;;;;;15.3;6.9;;;;;;;;;;;;;
2021/02/20 18:15:30;;;;;;;12;5.7;;;;;;;;;;;;;
2021/02/20 18:17:56;;;;;;;11.7;5.8;;;;;;;;;;;;;
2021/02/20 18:20:22;;;;;;;8.9;4.8;;;;;;;;;;;;;
2021/02/20 18:22:46;;;;;;;8.6;4.8;;;;;;;;;;;;;
2021/02/20 18:25:12;;;;;;;6.7;4.1;;;;;;;;;;;;;
2021/02/20 18:27:40;;;;;;;10.4;4.3;;;;;;;;;;;;;
2021/02/20 18:30:03;;;;;;;11.6;6;;;;;;;;;;;;;
2021/02/20 18:32:29;;;;;;;11.2;5.7;;;;;;;;;;;;;
2021/02/20 18:34:55;;;;;;;7.2;4;;;;;;;;;;;;;
2021/02/20 18:37:20;;;;;;;6.5;3.3;;;;;;;;;;;;;
2021/02/20 18:39:47;;;;;;;8.4;4.7;;;;;;;;;;;;;
2021/02/20 18:42:13;;;;;;;7.6;4.7;;;;;;;;;;;;;
2021/02/20 18:44:38;;;;;;;9.2;4.4;;;;;;;;;;;;;
2021/02/20 18:47:05;;;;;;;12.6;6.4;;;;;;;;;;;;;
2021/02/20 18:49:30;;;;;;;11.6;4.2;;;;;;;;;;;;;
2021/02/20 18:51:55;;;;;;;5.7;3.2;;;;;;;;;;;;;
2021/02/20 18:54:20;;;;;;;8.1;4.4;;;;;;;;;;;;;
2021/02/20 18:56:46;;;;;;;9.6;4.4;;;;;;;;;;;;;
2021/02/20 18:59:11;;;;;;;27;16.6;;;;;;;;;;;;;
2021/02/20 19:01:38;;;;;;;50.3;24.9;;;;;;;;;;;;;
2021/02/20 19:04:03;;;;;;;6.6;3.1;;;;;;;;;;;;;
2021/02/20 19:06:30;;;;;;;6.3;2.5;;;;;;;;;;;;;
2021/02/20 19:08:56;;;;;;;11.1;3.2;;;;;;;;;;;;;
2021/02/20 19:11:21;;;;;;;8.8;3;;;;;;;;;;;;;
2021/02/20 19:13:46;;;;;;;23.8;10.9;;;;;;;;;;;;;
2021/02/20 19:16:12;;;;;;;15.1;6.7;;;;;;;;;;;;;
2021/02/20 19:18:38;;;;;;;10.3;4.3;;;;;;;;;;;;;
2021/02/20 19:21:03;;;;;;;17.5;6.8;;;;;;;;;;;;;
2021/02/20 19:23:28;;;;;;;4.3;2.6;;;;;;;;;;;;;
2021/02/20 19:25:54;;;;;;;6.3;3.8;;;;;;;;;;;;;
2021/02/20 19:28:22;;;;;;;7.3;3.7;;;;;;;;;;;;;
2021/02/20 19:30:47;;;;;;;4.1;3.1;;;;;;;;;;;;;
2021/02/20 19:33:12;;;;;;;9;3.7;;;;;;;;;;;;;
2021/02/20 19:35:38;;;;;;;6;3.3;;;;;;;;;;;;;
2021/02/20 19:38:03;;;;;;;11.7;4.5;;;;;;;;;;;;;
2021/02/20 19:40:29;;;;;;;9.8;5.2;;;;;;;;;;;;;
2021/02/20 19:42:54;;;;;;;15.9;5.9;;;;;;;;;;;;;